Time;durP1;ratioP1;P1;durP2;ratioP2;P2;SDS_P1;SDS_P2;PMS_P1;PMS_P2;Temp;Humidity;BMP_temperature;BMP_pressure;BME280_temperature;BME280_humidity;BME280_pressure;Samples;Min_cycle;Max_cycle;Signal;HPM_P1;HPM_P2
2023/02/07 00:01:30;;;;;;;;;;;5.00;66.50;;;;;;5057424;28;20415;-61
2023/02/07 00:03:56;;;;;;;;;;;5.00;62.40;;;;;;5057635;28;19909;-61
2023/02/07 00:06:32;;;;;;;;;;;5.00;62.20;;;;;;5057717;28;19959;-60
2023/02/07 00:08:58;;;;;;;;;;;5.00;64.80;;;;;;5057470;28;19915;-60
2023/02/07 00:11:24;;;;;;;;;;;5.00;62.10;;;;;;5057404;28;19909;-61
2023/02/07 00:13:51;;;;;;;;;;;4.90;61.00;;;;;;5061227;28;19951;-61
2023/02/07 00:16:17;;;;;;;;;;;5.00;62.10;;;;;;5061597;28;19916;-61
2023/02/07 00:18:43;;;;;;;;;;;5.00;62.20;;;;;;5061822;28;19909;-61
2023/02/07 00:21:10;;;;;;;;;;;5.00;63.10;;;;;;5061312;28;19930;-61
2023/02/07 00:23:36;;;;;;;;;;;5.00;62.90;;;;;;5061523;28;19916;-61
2023/02/07 00:26:02;;;;;;;;;;;5.00;61.50;;;;;;5061379;28;19913;-61
2023/02/07 00:28:28;;;;;;;;;;;4.90;61.80;;;;;;5061417;28;20324;-61
2023/02/07 00:31:10;;;;;;;;;;;4.90;60.70;;;;;;5061075;28;19920;-61
2023/02/07 00:33:37;;;;;;;;;;;4.90;64.50;;;;;;5061560;28;20279;-61
2023/02/07 00:36:03;;;;;;;;;;;4.80;62.10;;;;;;5061074;28;19909;-61
2023/02/07 00:38:29;;;;;;;;;;;4.80;61.80;;;;;;5061157;28;19916;-61
2023/02/07 00:40:55;;;;;;;;;;;4.70;62.80;;;;;;5061222;28;19909;-60
2023/02/07 00:43:21;;;;;;;;;;;4.70;61.80;;;;;;5061013;28;19909;-61
2023/02/07 00:45:46;;;;;;;;;;;4.60;62.40;;;;;;5061067;28;20401;-61
2023/02/07 00:48:12;;;;;;;;;;;4.60;63.40;;;;;;5061060;28;19908;-61
2023/02/07 00:50:38;;;;;;;;;;;4.60;62.70;;;;;;5060685;28;19913;-61
2023/02/07 00:53:03;;;;;;;;;;;4.60;61.60;;;;;;5061160;28;19909;-61
2023/02/07 00:55:29;;;;;;;;;;;4.50;62.70;;;;;;5060940;28;19932;-61
2023/02/07 00:57:55;;;;;;;;;;;4.50;63.30;;;;;;5060532;28;19956;-61
2023/02/07 01:00:20;;;;;;;;;;;4.40;61.70;;;;;;5061069;28;19909;-61
2023/02/07 01:02:46;;;;;;;;;;;4.40;62.20;;;;;;5060203;28;20331;-61
2023/02/07 01:05:11;;;;;;;;;;;4.40;62.40;;;;;;5060737;28;19917;-61
2023/02/07 01:07:37;;;;;;;;;;;4.40;63.30;;;;;;5060350;28;19997;-61
2023/02/07 01:10:03;;;;;;;;;;;4.30;62.10;;;;;;5060667;28;20282;-61
2023/02/07 01:12:28;;;;;;;;;;;4.30;62.90;;;;;;5060377;28;19915;-61
2023/02/07 01:14:54;;;;;;;;;;;4.30;62.40;;;;;;5042306;28;19931;-61
2023/02/07 01:17:19;;;;;;;;;;;4.30;62.20;;;;;;5060279;28;19909;-61
2023/02/07 01:19:45;;;;;;;;;;;4.20;61.20;;;;;;5060417;28;19909;-61
2023/02/07 01:22:11;;;;;;;;;;;4.20;64.00;;;;;;5060232;28;20369;-61
2023/02/07 01:24:36;;;;;;;;;;;4.20;66.30;;;;;;5059989;28;19909;-61
2023/02/07 01:27:02;;;;;;;;;;;4.20;63.40;;;;;;5060303;28;19909;-60
2023/02/07 01:29:27;;;;;;;;;;;4.10;62.90;;;;;;5060183;28;19934;-61
2023/02/07 01:31:53;;;;;;;;;;;4.10;64.40;;;;;;5060298;28;19908;-61
2023/02/07 01:34:19;;;;;;;;;;;4.10;62.50;;;;;;5059905;28;19912;-61
2023/02/07 01:36:44;;;;;;;;;;;4.00;67.50;;;;;;5060099;28;19955;-61
2023/02/07 01:39:10;;;;;;;;;;;4.00;63.50;;;;;;5060342;28;19916;-61
2023/02/07 01:41:36;;;;;;;;;;;4.00;66.50;;;;;;5059987;28;19951;-61
2023/02/07 01:44:06;;;;;;;;;;;4.00;70.20;;;;;;5059957;28;19913;-61
2023/02/07 01:46:32;;;;;;;;;;;3.90;68.10;;;;;;5059930;28;19912;-61
2023/02/07 01:49:01;;;;;;;;;;;3.90;69.80;;;;;;5059588;28;19920;-61
2023/02/07 01:51:27;;;;;;;;;;;3.90;75.50;;;;;;5059615;28;19955;-61
2023/02/07 01:53:55;;;;;;;;;;;3.90;68.10;;;;;;5059582;28;20326;-61
2023/02/07 01:56:21;;;;;;;;;;;3.80;68.90;;;;;;5059708;28;19908;-61
2023/02/07 01:58:47;;;;;;;;;;;3.80;73.50;;;;;;5059734;28;19962;-61
2023/02/07 02:01:16;;;;;;;;;;;3.80;69.80;;;;;;5059227;28;19921;-61
2023/02/07 02:03:43;;;;;;;;;;;3.70;76.70;;;;;;5059363;28;19935;-60
2023/02/07 02:06:10;;;;;;;;;;;3.70;76.40;;;;;;5059537;28;19916;-61
2023/02/07 02:08:35;;;;;;;;;;;3.70;77.90;;;;;;5059776;28;19909;-61
2023/02/07 02:11:13;;;;;;;;;;;3.60;68.20;;;;;;5059436;28;19924;-61
2023/02/07 02:13:39;;;;;;;;;;;3.50;69.50;;;;;;5059472;28;19909;-61
2023/02/07 02:16:10;;;;;;;;;;;3.40;76.30;;;;;;5059195;28;19958;-61
2023/02/07 02:18:42;;;;;;;;;;;3.30;78.40;;;;;;5059159;28;19909;-61
2023/02/07 02:21:14;;;;;;;;;;;3.30;75.40;;;;;;5059276;28;19916;-61
2023/02/07 02:23:39;;;;;;;;;;;3.20;68.00;;;;;;5059069;28;19909;-60
2023/02/07 02:26:08;;;;;;;;;;;3.20;68.40;;;;;;5059591;28;19915;-61
2023/02/07 02:28:45;;;;;;;;;;;3.10;66.10;;;;;;5058851;28;20400;-61
2023/02/07 02:31:20;;;;;;;;;;;3.10;65.10;;;;;;5059002;28;19912;-61
2023/02/07 02:33:46;;;;;;;;;;;3.10;68.40;;;;;;5058998;28;19947;-61
2023/02/07 02:36:14;;;;;;;;;;;3.10;69.00;;;;;;5058451;28;19913;-61
2023/02/07 02:38:39;;;;;;;;;;;3.10;65.70;;;;;;5058733;28;19909;-61
2023/02/07 02:41:23;;;;;;;;;;;3.00;67.60;;;;;;5058870;28;20315;-61
2023/02/07 02:44:18;;;;;;;;;;;3.00;68.20;;;;;;5058823;28;20129;-61
2023/02/07 02:46:44;;;;;;;;;;;3.00;71.50;;;;;;5041280;28;20280;-61
2023/02/07 02:49:12;;;;;;;;;;;3.00;66.70;;;;;;5058657;28;19995;-61
2023/02/07 02:51:37;;;;;;;;;;;3.00;66.80;;;;;;5058419;28;20401;-61
2023/02/07 02:54:03;;;;;;;;;;;2.90;66.00;;;;;;5058675;28;19908;-60
2023/02/07 02:56:31;;;;;;;;;;;3.00;67.20;;;;;;5058991;28;20414;-61
2023/02/07 02:59:03;;;;;;;;;;;3.00;64.80;;;;;;5058485;28;19992;-61
2023/02/07 03:01:59;;;;;;;;;;;2.90;64.90;;;;;;5058476;28;19921;-61
2023/02/07 03:04:28;;;;;;;;;;;3.00;66.40;;;;;;5040601;28;19999;-61
2023/02/07 03:07:12;;;;;;;;;;;3.00;68.60;;;;;;5058463;28;19909;-60
2023/02/07 03:09:48;;;;;;;;;;;3.00;70.60;;;;;;5058290;28;19912;-60
2023/02/07 03:12:18;;;;;;;;;;;2.90;70.50;;;;;;5058429;28;20026;-61
2023/02/07 03:14:53;;;;;;;;;;;3.00;76.10;;;;;;5058293;28;19913;-60
2023/02/07 03:17:31;;;;;;;;;;;3.00;71.30;;;;;;5058247;28;19931;-60
2023/02/07 03:20:03;;;;;;;;;;;2.90;68.10;;;;;;5057827;28;19909;-61
2023/02/07 03:22:29;;;;;;;;;;;2.90;69.90;;;;;;5058200;28;19992;-60
2023/02/07 03:24:56;;;;;;;;;;;2.90;76.50;;;;;;5058145;28;19916;-61
2023/02/07 03:27:23;;;;;;;;;;;2.90;71.00;;;;;;5057791;28;19909;-61
2023/02/07 03:29:56;;;;;;;;;;;2.90;72.60;;;;;;5057814;28;19913;-61
2023/02/07 03:32:24;;;;;;;;;;;2.80;71.20;;;;;;5057838;28;19909;-61
2023/02/07 03:34:52;;;;;;;;;;;2.80;83.50;;;;;;5057726;28;20311;-61
2023/02/07 03:37:27;;;;;;;;;;;2.70;78.30;;;;;;5057758;28;19951;-61
2023/02/07 03:39:53;;;;;;;;;;;2.70;84.30;;;;;;5057927;28;20280;-61
2023/02/07 03:42:25;;;;;;;;;;;2.60;71.80;;;;;;5057710;28;19916;-61
2023/02/07 03:44:53;;;;;;;;;;;2.60;72.40;;;;;;5057681;28;20008;-61
2023/02/07 03:47:18;;;;;;;;;;;2.50;73.10;;;;;;5056926;28;19959;-60
2023/02/07 03:49:44;;;;;;;;;;;2.50;74.80;;;;;;5058040;28;19913;-61
2023/02/07 03:52:10;;;;;;;;;;;2.50;74.10;;;;;;5057789;28;19991;-61
2023/02/07 03:54:36;;;;;;;;;;;2.40;73.10;;;;;;5057757;28;19909;-61
2023/02/07 03:57:01;;;;;;;;;;;2.40;71.30;;;;;;5057529;28;20269;-61
2023/02/07 03:59:27;;;;;;;;;;;2.40;72.00;;;;;;5057702;28;20043;-61
2023/02/07 04:01:52;;;;;;;;;;;2.30;70.20;;;;;;5057418;28;20369;-61
2023/02/07 04:04:18;;;;;;;;;;;2.40;69.00;;;;;;5039544;28;19912;-61
2023/02/07 04:06:44;;;;;;;;;;;2.30;70.00;;;;;;5057706;28;20423;-61
2023/02/07 04:09:09;;;;;;;;;;;2.30;70.00;;;;;;5057262;28;19916;-61
2023/02/07 04:11:35;;;;;;;;;;;2.30;73.60;;;;;;5057673;28;19909;-61
2023/02/07 04:14:01;;;;;;;;;;;2.20;70.20;;;;;;5057699;28;20369;-61
2023/02/07 04:16:26;;;;;;;;;;;2.20;71.60;;;;;;5057392;28;20007;-61
2023/02/07 04:18:52;;;;;;;;;;;2.20;72.70;;;;;;5057807;28;19913;-61
2023/02/07 04:21:17;;;;;;;;;;;2.20;74.50;;;;;;5057522;28;19909;-61
2023/02/07 04:23:43;;;;;;;;;;;2.20;75.80;;;;;;5057373;28;19987;-61
2023/02/07 04:26:09;;;;;;;;;;;2.20;70.70;;;;;;5057294;28;19912;-61
2023/02/07 04:28:34;;;;;;;;;;;2.20;80.90;;;;;;5057602;28;20022;-60
2023/02/07 04:31:00;;;;;;;;;;;2.10;77.40;;;;;;5057161;28;19928;-61
2023/02/07 04:33:25;;;;;;;;;;;2.10;78.50;;;;;;5057688;28;20272;-61
2023/02/07 04:35:55;;;;;;;;;;;2.10;71.90;;;;;;5057192;28;19955;-61
2023/02/07 04:38:20;;;;;;;;;;;2.10;69.90;;;;;;5057536;28;19909;-61
2023/02/07 04:40:46;;;;;;;;;;;2.00;76.80;;;;;;5057353;28;19909;-61
2023/02/07 04:43:12;;;;;;;;;;;2.00;71.80;;;;;;5057271;28;19913;-61
2023/02/07 04:45:37;;;;;;;;;;;2.00;71.80;;;;;;5057309;28;19909;-61
2023/02/07 04:48:03;;;;;;;;;;;2.00;71.80;;;;;;5057235;28;19909;-61
2023/02/07 04:50:28;;;;;;;;;;;2.00;70.50;;;;;;5057067;28;19913;-61
2023/02/07 04:52:54;;;;;;;;;;;2.00;71.60;;;;;;5057542;28;19909;-61
2023/02/07 04:55:21;;;;;;;;;;;2.00;79.10;;;;;;5057312;28;19913;-61
2023/02/07 04:57:47;;;;;;;;;;;2.00;74.70;;;;;;5057229;28;20300;-61
2023/02/07 05:00:13;;;;;;;;;;;2.00;73.80;;;;;;5060932;28;19908;-60
2023/02/07 05:02:39;;;;;;;;;;;2.00;72.60;;;;;;5060316;28;19962;-61
2023/02/07 05:05:04;;;;;;;;;;;1.90;72.00;;;;;;5060655;28;19976;-61
2023/02/07 05:07:30;;;;;;;;;;;1.90;72.90;;;;;;5060974;28;19952;-61
2023/02/07 05:09:56;;;;;;;;;;;1.90;74.80;;;;;;5060641;28;19921;-61
2023/02/07 05:12:21;;;;;;;;;;;1.80;73.60;;;;;;5060442;28;19913;-60
2023/02/07 05:14:47;;;;;;;;;;;1.80;73.00;;;;;;5060569;28;19966;-61
2023/02/07 05:17:12;;;;;;;;;;;1.70;74.60;;;;;;5060382;28;19913;-61
2023/02/07 05:19:38;;;;;;;;;;;1.80;74.00;;;;;;5060646;28;20337;-61
2023/02/07 05:22:03;;;;;;;;;;;1.70;75.30;;;;;;5060329;28;19931;-61
2023/02/07 05:24:29;;;;;;;;;;;1.70;79.70;;;;;;5060388;28;19956;-61
2023/02/07 05:26:55;;;;;;;;;;;1.70;78.30;;;;;;5060334;28;19916;-61
2023/02/07 05:29:20;;;;;;;;;;;1.70;75.40;;;;;;5060240;28;20395;-61
2023/02/07 05:34:30;;;;;;;;;;;1.70;78.10;;;;;;5059998;28;19916;-61
2023/02/07 05:36:56;;;;;;;;;;;1.70;75.70;;;;;;5060008;28;20292;-61
2023/02/07 05:39:21;;;;;;;;;;;1.70;83.00;;;;;;5060256;28;19913;-61
2023/02/07 05:41:47;;;;;;;;;;;1.70;80.40;;;;;;5059945;28;19908;-61
2023/02/07 05:44:12;;;;;;;;;;;1.70;90.00;;;;;;5060381;28;19909;-61
2023/02/07 05:46:38;;;;;;;;;;;1.70;80.50;;;;;;5059877;28;20300;-61
2023/02/07 05:49:04;;;;;;;;;;;1.70;77.30;;;;;;5059994;28;19945;-61
2023/02/07 05:51:29;;;;;;;;;;;1.60;80.60;;;;;;5059978;28;19908;-61
2023/02/07 05:53:55;;;;;;;;;;;1.60;80.60;;;;;;5059668;28;19909;-61
2023/02/07 05:56:20;;;;;;;;;;;1.50;76.90;;;;;;5059817;28;19909;-61
2023/02/07 05:58:46;;;;;;;;;;;1.50;84.30;;;;;;5060043;28;19909;-60
2023/02/07 06:01:12;;;;;;;;;;;1.60;81.90;;;;;;5059546;28;19925;-61
2023/02/07 06:03:37;;;;;;;;;;;1.60;83.30;;;;;;5059698;28;20288;-60
2023/02/07 06:06:03;;;;;;;;;;;1.60;89.50;;;;;;5059751;28;19931;-61
2023/02/07 06:08:28;;;;;;;;;;;1.60;90.00;;;;;;5059636;28;19909;-61
2023/02/07 06:10:54;;;;;;;;;;;1.60;79.60;;;;;;5058691;28;19919;-61
2023/02/07 06:13:20;;;;;;;;;;;1.70;90.10;;;;;;5059487;28;19958;-60
2023/02/07 06:15:46;;;;;;;;;;;1.60;83.50;;;;;;5059282;28;19932;-61
2023/02/07 06:18:11;;;;;;;;;;;1.60;83.50;;;;;;5059470;28;19920;-61
2023/02/07 06:20:37;;;;;;;;;;;1.70;85.80;;;;;;5059089;28;19909;-61
2023/02/07 06:23:02;;;;;;;;;;;1.70;86.80;;;;;;5059200;28;19909;-61
2023/02/07 06:25:28;;;;;;;;;;;1.70;90.70;;;;;;5059381;28;19944;-61
2023/02/07 06:27:54;;;;;;;;;;;1.80;80.30;;;;;;5059023;28;19915;-61
2023/02/07 06:30:19;;;;;;;;;;;1.70;81.70;;;;;;5058972;28;19912;-61
2023/02/07 06:32:45;;;;;;;;;;;1.80;80.50;;;;;;5058957;28;19909;-60
2023/02/07 06:35:11;;;;;;;;;;;1.70;79.50;;;;;;5058969;28;19909;-61
2023/02/07 06:37:36;;;;;;;;;;;1.80;79.00;;;;;;5058804;28;19958;-60
2023/02/07 06:40:02;;;;;;;;;;;1.80;80.10;;;;;;5059144;28;20260;-60
2023/02/07 06:42:28;;;;;;;;;;;1.80;87.70;;;;;;5058736;28;19916;-61
2023/02/07 06:44:53;;;;;;;;;;;1.90;86.60;;;;;;5058876;28;19908;-61
2023/02/07 06:47:19;;;;;;;;;;;2.00;90.80;;;;;;5058647;28;19913;-61
2023/02/07 06:49:45;;;;;;;;;;;2.00;90.40;;;;;;5058685;28;19963;-61
2023/02/07 06:52:11;;;;;;;;;;;1.90;82.70;;;;;;5058576;28;19913;-61
2023/02/07 06:54:37;;;;;;;;;;;1.90;88.50;;;;;;5040956;28;19916;-61
2023/02/07 06:57:02;;;;;;;;;;;1.90;84.10;;;;;;5058675;28;19913;-61
2023/02/07 06:59:28;;;;;;;;;;;1.90;86.70;;;;;;5058905;28;20364;-61
2023/02/07 07:01:54;;;;;;;;;;;1.90;85.40;;;;;;5058244;28;19943;-60
2023/02/07 07:04:19;;;;;;;;;;;1.90;86.40;;;;;;5058286;28;20336;-61
2023/02/07 07:06:45;;;;;;;;;;;1.90;86.50;;;;;;5058148;28;19908;-61
2023/02/07 07:09:12;;;;;;;;;;;1.90;88.20;;;;;;5058246;28;19909;-61
2023/02/07 07:11:41;;;;;;;;;;;1.90;86.60;;;;;;5058013;28;19912;-61
2023/02/07 07:14:08;;;;;;;;;;;2.00;96.30;;;;;;5058378;28;19916;-61
2023/02/07 07:16:34;;;;;;;;;;;2.00;90.70;;;;;;5058308;28;20369;-61
2023/02/07 07:18:59;;;;;;;;;;;2.00;90.10;;;;;;5058297;28;19971;-61
2023/02/07 07:21:26;;;;;;;;;;;2.00;91.10;;;;;;5058081;28;19963;-61
2023/02/07 07:23:52;;;;;;;;;;;2.00;90.20;;;;;;5058218;28;19913;-61
2023/02/07 07:26:17;;;;;;;;;;;2.00;84.80;;;;;;5058274;28;20304;-61
2023/02/07 07:28:43;;;;;;;;;;;2.00;90.60;;;;;;5057940;28;19909;-61
2023/02/07 07:31:08;;;;;;;;;;;2.00;85.40;;;;;;5058371;28;19913;-61
2023/02/07 07:33:35;;;;;;;;;;;2.00;85.30;;;;;;5057929;28;19915;-61
2023/02/07 07:36:01;;;;;;;;;;;2.10;91.60;;;;;;5057662;28;19999;-60
2023/02/07 07:38:26;;;;;;;;;;;2.10;87.40;;;;;;5057670;28;19939;-61
2023/02/07 07:40:52;;;;;;;;;;;2.10;91.60;;;;;;5057705;28;20376;-60
2023/02/07 07:43:18;;;;;;;;;;;2.20;91.10;;;;;;5039707;28;20295;-60
2023/02/07 07:45:44;;;;;;;;;;;2.10;89.50;;;;;;5057822;28;20358;-60
2023/02/07 07:48:10;;;;;;;;;;;2.20;91.80;;;;;;5057686;28;19909;-60
2023/02/07 07:50:36;;;;;;;;;;;2.20;94.30;;;;;;5057704;28;19920;-61
2023/02/07 07:53:01;;;;;;;;;;;2.20;90.30;;;;;;5057763;28;20424;-61
2023/02/07 07:55:27;;;;;;;;;;;2.30;90.90;;;;;;5057768;28;19939;-61
2023/02/07 07:57:53;;;;;;;;;;;2.20;90.60;;;;;;5057988;28;20307;-60
2023/02/07 08:00:18;;;;;;;;;;;2.30;90.00;;;;;;5057440;28;20384;-61
2023/02/07 08:02:44;;;;;;;;;;;2.30;90.40;;;;;;5057161;28;19970;-61
2023/02/07 08:05:10;;;;;;;;;;;2.30;93.30;;;;;;5057881;28;19923;-61
2023/02/07 08:07:36;;;;;;;;;;;2.40;90.70;;;;;;5057365;28;19909;-60
2023/02/07 08:10:02;;;;;;;;;;;2.30;91.40;;;;;;5057601;28;19917;-60
2023/02/07 08:12:27;;;;;;;;;;;2.40;92.40;;;;;;5057394;28;19915;-60
2023/02/07 08:14:53;;;;;;;;;;;2.30;87.80;;;;;;5057771;28;19909;-60
2023/02/07 08:17:19;;;;;;;;;;;2.50;91.00;;;;;;5057342;28;19916;-60
2023/02/07 08:19:44;;;;;;;;;;;2.60;89.60;;;;;;5057809;28;19915;-61
2023/02/07 08:22:10;;;;;;;;;;;2.60;91.10;;;;;;5057318;28;20007;-60
2023/02/07 08:24:36;;;;;;;;;;;2.80;91.60;;;;;;5057506;28;19972;-60
2023/02/07 08:27:01;;;;;;;;;;;2.80;91.00;;;;;;5057714;28;19915;-60
2023/02/07 08:29:27;;;;;;;;;;;2.90;93.60;;;;;;5057445;28;19963;-61
2023/02/07 08:31:53;;;;;;;;;;;3.00;87.80;;;;;;5057310;28;20314;-60
2023/02/07 08:34:22;;;;;;;;;;;3.00;91.20;;;;;;5059946;28;19909;-60
2023/02/07 08:36:49;;;;;;;;;;;3.10;89.10;;;;;;5061230;28;20007;-61
2023/02/07 08:39:14;;;;;;;;;;;3.20;90.60;;;;;;5061173;28;19913;-60
2023/02/07 08:41:40;;;;;;;;;;;3.30;92.20;;;;;;5060719;28;19935;-61
2023/02/07 08:44:05;;;;;;;;;;;3.50;91.90;;;;;;5061250;28;19963;-60
2023/02/07 08:46:31;;;;;;;;;;;3.60;94.90;;;;;;5061124;28;20310;-61
2023/02/07 08:48:57;;;;;;;;;;;3.60;92.50;;;;;;5060791;28;20352;-61
2023/02/07 08:51:23;;;;;;;;;;;3.90;94.40;;;;;;5060978;28;19912;-60
2023/02/07 08:53:48;;;;;;;;;;;4.40;99.00;;;;;;5060643;28;19996;-60
2023/02/07 08:56:14;;;;;;;;;;;5.30;99.90;;;;;;5061047;28;19916;-60
2023/02/07 08:58:40;;;;;;;;;;;6.00;98.30;;;;;;5060601;28;19931;-61
2023/02/07 09:01:10;;;;;;;;;;;6.40;97.50;;;;;;5060386;28;19917;-60
2023/02/07 09:03:36;;;;;;;;;;;6.70;95.30;;;;;;5061266;28;19909;-60
2023/02/07 09:06:02;;;;;;;;;;;7.00;94.70;;;;;;5060506;28;19912;-61
2023/02/07 09:08:28;;;;;;;;;;;7.50;94.30;;;;;;5060830;28;19944;-61
2023/02/07 09:10:53;;;;;;;;;;;7.60;88.30;;;;;;5060552;28;20336;-60
2023/02/07 09:13:19;;;;;;;;;;;7.70;94.10;;;;;;5060284;28;19996;-60
2023/02/07 09:15:45;;;;;;;;;;;8.00;89.00;;;;;;5060780;28;19909;-60
2023/02/07 09:18:10;;;;;;;;;;;8.20;84.70;;;;;;5060346;28;19909;-61
2023/02/07 09:20:37;;;;;;;;;;;8.30;93.00;;;;;;5060324;28;19996;-61
2023/02/07 09:23:18;;;;;;;;;;;8.70;93.80;;;;;;5060295;28;19909;-61
2023/02/07 09:25:48;;;;;;;;;;;9.00;92.40;;;;;;5060383;28;19916;-61
2023/02/07 09:28:14;;;;;;;;;;;9.30;79.60;;;;;;5059976;28;20386;-60
2023/02/07 09:30:44;;;;;;;;;;;9.30;86.20;;;;;;5060169;28;20005;-61
2023/02/07 09:33:10;;;;;;;;;;;9.40;75.20;;;;;;5060392;28;20356;-60
2023/02/07 09:35:37;;;;;;;;;;;9.20;76.00;;;;;;5059987;28;19909;-61
2023/02/07 09:38:02;;;;;;;;;;;9.60;76.90;;;;;;5059775;28;19931;-60
2023/02/07 09:40:30;;;;;;;;;;;9.30;77.70;;;;;;5060121;28;19995;-61
2023/02/07 09:42:57;;;;;;;;;;;10.00;90.70;;;;;;5059795;28;19951;-60
2023/02/07 09:45:25;;;;;;;;;;;10.40;87.30;;;;;;5059911;28;20297;-61
2023/02/07 09:47:57;;;;;;;;;;;10.00;75.20;;;;;;5059907;28;19909;-61
2023/02/07 09:50:31;;;;;;;;;;;10.50;85.40;;;;;;5059381;28;19913;-61
2023/02/07 09:53:04;;;;;;;;;;;9.80;68.40;;;;;;5059779;28;19932;-61
2023/02/07 09:55:43;;;;;;;;;;;9.60;71.10;;;;;;5059593;28;19915;-60
2023/02/07 09:58:13;;;;;;;;;;;9.70;74.30;;;;;;5059963;28;20043;-61
2023/02/07 10:00:41;;;;;;;;;;;9.60;70.40;;;;;;5059518;28;19952;-60
2023/02/07 10:03:15;;;;;;;;;;;9.50;70.60;;;;;;5059343;28;20011;-60
2023/02/07 10:05:41;;;;;;;;;;;9.60;68.50;;;;;;5059820;28;19958;-61
2023/02/07 10:08:14;;;;;;;;;;;9.80;71.60;;;;;;5059562;28;19909;-61
2023/02/07 10:10:45;;;;;;;;;;;10.30;76.90;;;;;;5059677;28;19920;-62
2023/02/07 10:13:31;;;;;;;;;;;11.10;83.40;;;;;;5059118;28;19952;-62
2023/02/07 10:15:57;;;;;;;;;;;11.90;76.30;;;;;;5059420;28;19908;-62
2023/02/07 10:18:28;;;;;;;;;;;12.00;71.10;;;;;;5058799;28;19909;-62
2023/02/07 10:21:13;;;;;;;;;;;12.60;72.50;;;;;;5059082;28;19909;-62
2023/02/07 10:23:38;;;;;;;;;;;13.00;67.90;;;;;;5059164;28;20432;-62
2023/02/07 10:26:14;;;;;;;;;;;13.00;62.20;;;;;;5059168;28;19976;-62
2023/02/07 10:28:43;;;;;;;;;;;13.50;67.30;;;;;;5058737;28;19909;-62
2023/02/07 10:31:12;;;;;;;;;;;13.30;64.70;;;;;;5058980;28;19912;-62
2023/02/07 10:33:39;;;;;;;;;;;14.20;68.80;;;;;;5059077;28;19996;-62
2023/02/07 10:36:08;;;;;;;;;;;14.70;62.60;;;;;;5058759;28;19932;-62
2023/02/07 10:38:42;;;;;;;;;;;14.80;64.70;;;;;;5059090;28;19961;-61
2023/02/07 10:41:14;;;;;;;;;;;15.10;63.30;;;;;;5058905;28;19908;-62
2023/02/07 10:43:41;;;;;;;;;;;15.60;61.10;;;;;;5058638;28;19909;-62
2023/02/07 10:46:09;;;;;;;;;;;15.90;65.00;;;;;;5058547;28;19916;-61
2023/02/07 10:48:35;;;;;;;;;;;16.00;60.90;;;;;;5058797;28;19909;-62
2023/02/07 10:51:18;;;;;;;;;;;16.00;60.30;;;;;;5058389;28;19935;-62
2023/02/07 10:53:46;;;;;;;;;;;16.40;58.20;;;;;;5058517;28;19974;-63
2023/02/07 10:56:25;;;;;;;;;;;17.00;60.00;;;;;;5057811;28;20452;-62
2023/02/07 10:58:53;;;;;;;;;;;16.90;55.40;;;;;;5059036;28;19909;-63
2023/02/07 11:01:19;;;;;;;;;;;17.00;60.00;;;;;;5058397;28;19984;-63
2023/02/07 11:03:45;;;;;;;;;;;17.30;55.80;;;;;;5058272;28;19908;-63
2023/02/07 11:06:13;;;;;;;;;;;17.80;57.10;;;;;;5058458;28;20271;-63
2023/02/07 11:08:39;;;;;;;;;;;18.80;60.30;;;;;;5058198;28;20348;-63
2023/02/07 11:11:24;;;;;;;;;;;17.50;49.40;;;;;;5058550;28;19913;-63
2023/02/07 11:13:51;;;;;;;;;;;17.10;49.50;;;;;;5058362;28;20347;-62
2023/02/07 11:16:18;;;;;;;;;;;17.00;50.70;;;;;;5058237;28;19909;-61
2023/02/07 11:18:45;;;;;;;;;;;17.50;50.40;;;;;;5058002;28;19916;-61
2023/02/07 11:21:17;;;;;;;;;;;18.00;53.30;;;;;;5057530;28;20277;-61
2023/02/07 11:23:44;;;;;;;;;;;17.60;44.90;;;;;;5057826;28;19954;-61
2023/02/07 11:26:09;;;;;;;;;;;16.90;45.10;;;;;;5057580;28;19909;-61
2023/02/07 11:28:35;;;;;;;;;;;17.10;50.50;;;;;;5039925;28;19916;-61
2023/02/07 11:31:04;;;;;;;;;;;17.40;45.80;;;;;;5057616;28;19913;-61
2023/02/07 11:33:31;;;;;;;;;;;17.30;48.50;;;;;;5057771;28;20311;-61
2023/02/07 11:36:06;;;;;;;;;;;18.10;49.80;;;;;;5057523;28;20007;-61
2023/02/07 11:38:36;;;;;;;;;;;17.40;48.10;;;;;;5057908;28;19955;-61
2023/02/07 11:41:05;;;;;;;;;;;17.00;43.30;;;;;;5057820;28;19954;-61
2023/02/07 11:43:33;;;;;;;;;;;17.00;44.90;;;;;;5057800;28;19913;-61
2023/02/07 11:46:02;;;;;;;;;;;17.80;50.40;;;;;;5057517;28;19916;-61
2023/02/07 11:48:29;;;;;;;;;;;18.30;48.00;;;;;;5058070;28;19909;-61
2023/02/07 11:50:56;;;;;;;;;;;18.30;42.50;;;;;;5057604;28;19919;-61
2023/02/07 11:53:28;;;;;;;;;;;17.80;42.70;;;;;;5057584;28;19915;-61
2023/02/07 11:55:55;;;;;;;;;;;18.10;42.80;;;;;;5057686;28;19909;-61
2023/02/07 11:58:26;;;;;;;;;;;19.40;48.60;;;;;;5057607;28;19948;-61
2023/02/07 12:00:53;;;;;;;;;;;20.10;43.20;;;;;;5057572;28;19974;-61
2023/02/07 12:03:27;;;;;;;;;;;20.00;43.10;;;;;;5057418;28;20341;-61
2023/02/07 12:05:54;;;;;;;;;;;20.60;42.80;;;;;;5057686;28;20272;-61
2023/02/07 12:08:22;;;;;;;;;;;19.10;40.50;;;;;;5058682;28;19909;-61
2023/02/07 12:10:51;;;;;;;;;;;18.40;38.20;;;;;;5061344;28;19959;-61
2023/02/07 12:13:19;;;;;;;;;;;18.60;43.40;;;;;;5061538;28;19932;-61
2023/02/07 12:15:50;;;;;;;;;;;19.80;44.20;;;;;;5061515;28;20303;-61
2023/02/07 12:18:24;;;;;;;;;;;19.00;37.90;;;;;;5061407;28;20295;-61
2023/02/07 12:20:59;;;;;;;;;;;19.50;41.70;;;;;;5061347;28;19909;-61
2023/02/07 12:23:41;;;;;;;;;;;18.90;40.10;;;;;;5061297;28;19909;-61
2023/02/07 12:26:14;;;;;;;;;;;18.40;36.00;;;;;;5061621;28;19915;-61
2023/02/07 12:28:45;;;;;;;;;;;18.90;42.30;;;;;;5061731;28;20382;-61
2023/02/07 12:31:34;;;;;;;;;;;19.10;39.60;;;;;;5043620;28;19945;-61
2023/02/07 12:34:04;;;;;;;;;;;20.40;40.60;;;;;;5023629;28;20265;-61
2023/02/07 12:36:35;;;;;;;;;;;20.80;40.70;;;;;;5060831;28;19912;-61
2023/02/07 12:39:25;;;;;;;;;;;21.40;42.30;;;;;;5061489;28;19909;-61
2023/02/07 12:42:12;;;;;;;;;;;21.60;42.20;;;;;;5061160;28;19958;-61
2023/02/07 12:44:39;;;;;;;;;;;21.40;36.60;;;;;;5061321;28;19909;-61
2023/02/07 12:47:24;;;;;;;;;;;21.70;38.80;;;;;;5061076;28;19938;-61
2023/02/07 12:49:58;;;;;;;;;;;21.90;34.40;;;;;;5060842;28;20323;-61
2023/02/07 12:52:27;;;;;;;;;;;21.30;36.80;;;;;;5060760;28;19955;-61
2023/02/07 12:55:02;;;;;;;;;;;20.70;37.70;;;;;;5060936;28;19948;-61
2023/02/07 12:57:43;;;;;;;;;;;19.30;36.10;;;;;;5061081;28;19909;-61
2023/02/07 13:00:38;;;;;;;;;;;19.10;35.70;;;;;;5060883;28;19909;-61
2023/02/07 13:03:22;;;;;;;;;;;18.60;34.30;;;;;;4988061;28;20433;-61
2023/02/07 13:05:53;;;;;;;;;;;19.40;35.40;;;;;;5060016;28;19909;-61
2023/02/07 13:08:19;;;;;;;;;;;19.10;36.60;;;;;;5059300;28;19966;-61
2023/02/07 13:10:51;;;;;;;;;;;19.30;35.00;;;;;;5059397;28;19912;-61
2023/02/07 13:13:19;;;;;;;;;;;19.30;35.10;;;;;;5059245;28;19913;-61
2023/02/07 13:15:52;;;;;;;;;;;20.20;38.70;;;;;;5059373;28;19932;-61
2023/02/07 13:18:21;;;;;;;;;;;20.00;32.40;;;;;;5059171;28;19916;-61
2023/02/07 13:20:49;;;;;;;;;;;19.60;34.30;;;;;;5040827;28;19908;-61
2023/02/07 13:23:20;;;;;;;;;;;19.80;36.20;;;;;;5059375;28;20407;-61
2023/02/07 13:25:48;;;;;;;;;;;18.80;29.90;;;;;;5058989;28;19916;-61
2023/02/07 13:28:13;;;;;;;;;;;19.00;34.90;;;;;;5059280;28;19947;-61
2023/02/07 13:30:40;;;;;;;;;;;18.40;30.50;;;;;;5059113;28;19912;-58
2023/02/07 13:33:23;;;;;;;;;;;18.10;30.00;;;;;;5059099;28;20288;-57
2023/02/07 13:35:50;;;;;;;;;;;17.90;31.30;;;;;;5059110;28;19908;-57
2023/02/07 13:38:18;;;;;;;;;;;18.40;33.70;;;;;;5058886;28;19915;-57
2023/02/07 13:40:44;;;;;;;;;;;18.30;31.30;;;;;;5059022;28;19909;-57
2023/02/07 13:43:15;;;;;;;;;;;18.30;31.50;;;;;;5059002;28;19909;-57
2023/02/07 13:45:50;;;;;;;;;;;18.00;31.30;;;;;;5059006;28;19909;-57
2023/02/07 13:48:23;;;;;;;;;;;17.60;30.10;;;;;;5059174;28;20004;-57
2023/02/07 13:50:58;;;;;;;;;;;17.70;32.10;;;;;;5058455;28;19920;-57
2023/02/07 13:53:42;;;;;;;;;;;18.00;31.20;;;;;;5058591;28;19909;-58
2023/02/07 13:59:37;;;;;;;;;;;18.40;32.40;;;;;;5058475;28;19968;-57
2023/02/07 14:01:58;;;;;;;;;;;18.80;31.80;;;;;;4979449;28;2251551;-58
2023/02/07 14:04:24;;;;;;;;;;;18.80;32.10;;;;;;5059497;28;19913;-57
2023/02/07 14:06:52;;;;;;;;;;;18.60;31.20;;;;;;5059870;28;20384;-57
2023/02/07 14:09:27;;;;;;;;;;;18.70;31.30;;;;;;5059546;28;19963;-57
2023/02/07 14:11:57;;;;;;;;;;;18.70;33.00;;;;;;5059323;28;19913;-57
2023/02/07 14:14:26;;;;;;;;;;;18.50;31.60;;;;;;5059353;28;19919;-57
2023/02/07 14:16:54;;;;;;;;;;;18.10;30.00;;;;;;5059431;28;20450;-57
2023/02/07 14:19:40;;;;;;;;;;;17.70;32.00;;;;;;5059443;28;20271;-57
2023/02/07 14:22:13;;;;;;;;;;;17.70;30.70;;;;;;5045151;28;19909;-57
2023/02/07 14:24:46;;;;;;;;;;;17.30;30.60;;;;;;5059267;28;19909;-57
2023/02/07 14:27:26;;;;;;;;;;;16.40;30.40;;;;;;5059271;28;20429;-57
2023/02/07 14:29:54;;;;;;;;;;;16.70;31.90;;;;;;5059118;28;19913;-57
2023/02/07 14:32:20;;;;;;;;;;;17.30;32.30;;;;;;5058174;28;19945;-57
2023/02/07 14:34:58;;;;;;;;;;;17.20;31.60;;;;;;5058827;28;19916;-57
2023/02/07 14:37:42;;;;;;;;;;;17.20;31.10;;;;;;5058989;28;19912;-57
2023/02/07 14:40:18;;;;;;;;;;;16.90;30.80;;;;;;5058964;28;19955;-57